Time;durP1;ratioP1;P1;durP2;ratioP2;P2;SDS_P1;SDS_P2;PMS_P1;PMS_P2;Temp;Humidity;BMP_temperature;BMP_pressure;BME280_temperature;BME280_humidity;BME280_pressure;Samples;Min_cycle;Max_cycle;Signal;HPM_P1;HPM_P2
2022/04/17 00:00:30;;;;;;;8.27;4.85;;;15.70;54.30;;;;;;5086414;28;20410;-77
2022/04/17 00:02:56;;;;;;;6.10;4.00;;;15.60;54.50;;;;;;5095659;28;20110;-77
2022/04/17 00:05:22;;;;;;;8.25;4.25;;;15.50;53.90;;;;;;5098230;28;20030;-77
2022/04/17 00:07:48;;;;;;;7.70;4.05;;;15.50;54.20;;;;;;5079127;28;20036;-77
2022/04/17 00:10:14;;;;;;;6.32;3.78;;;15.50;54.40;;;;;;5077576;28;20040;-77
2022/04/17 00:12:40;;;;;;;8.10;4.70;;;15.50;54.20;;;;;;5093747;28;20021;-76
2022/04/17 00:15:09;;;;;;;6.57;4.20;;;15.50;54.20;;;;;;5078113;28;20027;-77
2022/04/17 00:17:37;;;;;;;9.27;4.63;;;15.50;54.20;;;;;;5077940;28;20470;-77
2022/04/17 00:20:04;;;;;;;7.90;4.10;;;15.40;54.50;;;;;;5078068;28;20032;-77
2022/04/17 00:22:30;;;;;;;10.75;4.93;;;15.30;54.50;;;;;;5077633;28;20100;-77
2022/04/17 00:24:55;;;;;;;8.65;5.03;;;15.30;54.70;;;;;;5093377;28;20055;-77
2022/04/17 00:27:21;;;;;;;8.50;4.80;;;15.30;55.00;;;;;;5077737;28;20025;-77
2022/04/17 00:29:47;;;;;;;11.98;4.32;;;15.30;54.70;;;;;;5077862;28;20059;-77
2022/04/17 00:32:13;;;;;;;6.85;4.35;;;15.30;55.00;;;;;;5077684;28;20055;-77
2022/04/17 00:34:39;;;;;;;10.88;4.75;;;15.30;54.90;;;;;;5077609;28;20033;-77
2022/04/17 00:37:05;;;;;;;7.22;3.72;;;15.20;55.10;;;;;;5077693;28;20027;-77
2022/04/17 00:39:31;;;;;;;8.93;5.38;;;15.20;54.90;;;;;;5077712;28;20378;-76
2022/04/17 00:41:57;;;;;;;9.02;4.55;;;15.20;55.10;;;;;;5092001;28;20028;-77
2022/04/17 00:44:25;;;;;;;6.85;3.90;;;15.10;55.50;;;;;;5077212;28;20203;-76
2022/04/17 00:46:51;;;;;;;11.77;5.38;;;15.00;55.60;;;;;;5079274;28;20115;-77
2022/04/17 00:49:16;;;;;;;8.52;4.45;;;15.10;55.60;;;;;;5097770;28;20071;-77
2022/04/17 00:51:45;;;;;;;7.30;4.90;;;15.00;55.80;;;;;;5090003;28;20058;-77
2022/04/17 00:54:12;;;;;;;8.68;4.47;;;15.00;55.70;;;;;;5077534;28;20036;-76
2022/04/17 00:56:38;;;;;;;8.48;4.50;;;15.00;55.60;;;;;;5077355;28;20026;-76
2022/04/17 00:59:06;;;;;;;9.75;5.18;;;15.00;55.80;;;;;;5079329;28;20028;-77
2022/04/17 01:01:33;;;;;;;9.02;4.30;;;15.00;55.90;;;;;;5090754;28;20024;-77
2022/04/17 01:03:59;;;;;;;7.75;4.57;;;15.00;56.00;;;;;;5077430;28;20024;-77
2022/04/17 01:06:26;;;;;;;8.13;4.13;;;14.90;56.40;;;;;;5092930;28;20422;-76
2022/04/17 01:08:52;;;;;;;6.35;4.53;;;14.90;56.10;;;;;;5076770;28;20119;-77
2022/04/17 01:11:18;;;;;;;7.47;4.00;;;14.90;56.20;;;;;;5096626;28;20090;-76
2022/04/17 01:13:43;;;;;;;7.97;4.25;;;14.90;56.10;;;;;;5094760;28;20385;-77
2022/04/17 01:16:11;;;;;;;9.63;4.85;;;14.90;56.10;;;;;;5076814;28;20035;-76
2022/04/17 01:18:56;;;;;;;8.68;4.30;;;14.80;56.10;;;;;;5076948;28;20081;-76
2022/04/17 01:21:26;;;;;;;7.15;4.25;;;14.80;56.20;;;;;;5092623;28;20032;-77
2022/04/17 01:29:28;;;;;;;12.70;4.40;;;14.70;56.20;;;;;;5076656;28;20110;-76
2022/04/17 01:31:54;;;;;;;8.23;4.20;;;14.70;56.40;;;;;;5076597;28;20021;-76
2022/04/17 01:34:21;;;;;;;7.57;4.00;;;14.60;56.70;;;;;;5090957;28;20028;-76
2022/04/17 01:36:49;;;;;;;6.55;4.20;;;14.60;56.70;;;;;;5075281;28;20115;-77
2022/04/17 01:39:16;;;;;;;6.43;4.32;;;14.50;56.60;;;;;;5076394;28;20040;-77
2022/04/17 01:41:42;;;;;;;9.15;4.70;;;14.50;56.70;;;;;;5076466;28;20039;-76
2022/04/17 01:44:07;;;;;;;8.30;4.65;;;14.50;57.10;;;;;;5076376;28;20025;-76
2022/04/17 01:46:53;;;;;;;6.38;4.10;;;14.40;57.30;;;;;;5076416;28;20034;-76
2022/04/17 01:49:19;;;;;;;7.88;4.00;;;14.40;57.30;;;;;;5076455;28;20037;-76
2022/04/17 01:51:47;;;;;;;7.93;4.28;;;14.30;57.30;;;;;;5076014;28;20029;-76
2022/04/17 01:54:15;;;;;;;6.28;4.13;;;14.30;57.40;;;;;;5075299;28;20544;-76
2022/04/17 01:56:42;;;;;;;6.75;4.00;;;14.30;57.70;;;;;;5075834;28;20087;-77
2022/04/17 01:59:09;;;;;;;8.10;4.68;;;14.20;57.90;;;;;;5079004;28;20062;-77
2022/04/17 02:01:37;;;;;;;5.18;4.13;;;14.20;58.10;;;;;;5096380;28;20027;-77
2022/04/17 02:04:04;;;;;;;6.50;3.75;;;14.20;58.00;;;;;;5096318;28;20179;-76
2022/04/17 02:06:30;;;;;;;6.22;4.22;;;14.20;58.10;;;;;;5083278;28;20160;-76
2022/04/17 02:08:56;;;;;;;11.15;4.60;;;14.20;58.00;;;;;;5075926;28;20028;-76
2022/04/17 02:11:25;;;;;;;7.30;3.97;;;14.10;58.20;;;;;;5074186;28;20036;-77
2022/04/17 02:13:51;;;;;;;8.23;4.50;;;14.10;58.60;;;;;;5075984;28;20737;-76
2022/04/17 02:16:17;;;;;;;7.60;4.65;;;14.10;58.60;;;;;;5075899;28;20127;-76
2022/04/17 02:18:52;;;;;;;8.02;4.60;;;14.00;58.80;;;;;;5075778;28;20039;-76
2022/04/17 02:21:19;;;;;;;6.10;3.83;;;14.00;58.80;;;;;;5074349;28;20123;-77
2022/04/17 02:23:45;;;;;;;6.75;4.13;;;14.00;59.00;;;;;;5091508;28;20487;-77
2022/04/17 02:26:13;;;;;;;6.15;3.67;;;14.00;58.90;;;;;;5075337;28;20056;-76
2022/04/17 02:28:40;;;;;;;8.32;3.72;;;14.00;58.80;;;;;;5075497;28;20032;-76
2022/04/17 02:31:07;;;;;;;7.13;4.35;;;13.90;59.10;;;;;;5075476;28;20498;-76
2022/04/17 02:33:34;;;;;;;6.63;4.28;;;13.80;59.70;;;;;;5074477;28;20086;-76
2022/04/17 02:36:00;;;;;;;6.03;4.07;;;13.70;59.90;;;;;;5075314;28;20024;-77
2022/04/17 02:38:26;;;;;;;8.05;4.38;;;13.70;59.90;;;;;;5074459;28;20475;-77
2022/04/17 02:40:52;;;;;;;6.43;3.97;;;13.70;60.10;;;;;;5075302;28;20032;-76
2022/04/17 02:43:20;;;;;;;8.88;4.38;;;13.70;60.10;;;;;;5075124;28;20040;-76
2022/04/17 02:45:46;;;;;;;10.65;4.95;;;13.70;59.70;;;;;;5075326;28;20070;-76
2022/04/17 02:48:12;;;;;;;6.72;3.90;;;13.70;59.80;;;;;;5088035;28;20036;-77
2022/04/17 02:50:39;;;;;;;6.88;4.13;;;13.70;59.70;;;;;;5078832;28;20029;-76
2022/04/17 02:53:05;;;;;;;8.80;4.15;;;13.70;59.60;;;;;;5075301;28;20501;-76
2022/04/17 02:55:30;;;;;;;7.18;4.13;;;13.60;59.90;;;;;;5090711;28;20052;-77
2022/04/17 02:57:56;;;;;;;6.95;4.53;;;13.50;60.00;;;;;;5073774;28;20477;-77
2022/04/17 03:00:24;;;;;;;7.82;4.38;;;13.50;60.20;;;;;;5094304;28;20055;-77
2022/04/17 03:05:37;;;;;;;7.38;4.03;;;13.50;60.20;;;;;;5074804;28;20079;-76
2022/04/17 03:08:11;;;;;;;6.82;4.55;;;13.40;60.30;;;;;;5074838;28;20020;-76
2022/04/17 03:10:47;;;;;;;7.38;4.68;;;13.40;60.20;;;;;;5074711;28;20132;-76
2022/04/17 03:13:14;;;;;;;5.32;3.60;;;13.30;60.70;;;;;;5090122;28;20029;-77
2022/04/17 03:15:40;;;;;;;7.85;4.22;;;13.30;61.00;;;;;;5075419;28;20024;-77
2022/04/17 03:18:10;;;;;;;7.88;4.57;;;13.30;61.00;;;;;;5074928;28;20379;-76
2022/04/17 03:20:37;;;;;;;5.78;4.35;;;13.30;60.70;;;;;;5089901;28;20028;-76
2022/04/17 03:23:03;;;;;;;7.13;3.95;;;13.20;61.00;;;;;;5074791;28;20842;-76
2022/04/17 03:25:29;;;;;;;11.18;4.68;;;13.20;60.90;;;;;;5074568;28;20029;-76
2022/04/17 03:27:57;;;;;;;7.70;4.47;;;13.20;60.80;;;;;;5074846;28;20024;-76
2022/04/17 03:30:23;;;;;;;6.40;4.43;;;13.20;60.70;;;;;;5075136;28;20383;-76
2022/04/17 03:32:49;;;;;;;6.22;4.25;;;13.20;60.50;;;;;;5073458;28;20047;-76
2022/04/17 03:35:16;;;;;;;7.05;4.60;;;13.20;60.80;;;;;;5093613;28;20028;-76
2022/04/17 03:37:42;;;;;;;7.65;4.22;;;13.20;60.70;;;;;;5089766;28;20111;-76
2022/04/17 03:40:10;;;;;;;9.65;4.80;;;13.10;61.20;;;;;;5074615;28;20485;-76
2022/04/17 03:42:37;;;;;;;8.25;4.13;;;13.10;61.30;;;;;;5074841;28;20052;-77
2022/04/17 03:45:07;;;;;;;7.70;4.03;;;13.00;61.50;;;;;;5074665;28;20032;-76
2022/04/17 03:47:33;;;;;;;8.38;4.50;;;13.00;61.60;;;;;;5077958;28;20060;-76
2022/04/17 03:50:00;;;;;;;6.97;3.95;;;12.90;61.10;;;;;;5090159;28;20021;-76
2022/04/17 03:52:26;;;;;;;9.50;4.63;;;13.00;60.80;;;;;;5074661;28;20050;-76
2022/04/17 03:54:51;;;;;;;8.57;4.50;;;12.90;60.80;;;;;;5074619;28;20032;-76
2022/04/17 03:57:17;;;;;;;9.40;4.35;;;12.90;60.80;;;;;;5074309;28;20028;-76
2022/04/17 03:59:43;;;;;;;5.70;3.80;;;12.90;60.50;;;;;;5082281;28;20023;-76
2022/04/17 04:02:08;;;;;;;5.97;4.03;;;12.90;60.40;;;;;;5094792;28;20397;-76
2022/04/17 04:04:36;;;;;;;5.57;4.15;;;12.90;60.40;;;;;;5078205;28;20028;-76
2022/04/17 04:07:01;;;;;;;6.82;4.07;;;12.80;60.80;;;;;;5074433;28;20024;-76
2022/04/17 04:09:27;;;;;;;7.88;4.50;;;12.80;61.00;;;;;;5074584;28;20029;-76
2022/04/17 04:11:53;;;;;;;7.30;4.82;;;12.80;61.00;;;;;;5089695;28;20850;-76
2022/04/17 04:14:18;;;;;;;8.48;4.53;;;12.80;61.10;;;;;;5074479;28;20027;-76
2022/04/17 04:16:44;;;;;;;7.70;4.57;;;12.80;61.10;;;;;;5074202;28;20021;-77
2022/04/17 04:19:12;;;;;;;9.77;4.78;;;12.70;61.00;;;;;;5092400;28;20025;-76
2022/04/17 04:21:47;;;;;;;10.60;4.65;;;12.70;60.90;;;;;;5077991;28;20088;-76
2022/04/17 04:24:14;;;;;;;10.05;4.80;;;12.70;60.80;;;;;;5077918;28;20044;-76
2022/04/17 04:26:42;;;;;;;7.43;4.28;;;12.70;60.90;;;;;;5077690;28;20479;-76
2022/04/17 04:29:08;;;;;;;8.02;4.13;;;12.70;60.90;;;;;;5078171;28;20024;-76
2022/04/17 04:31:36;;;;;;;8.15;4.82;;;12.70;61.00;;;;;;5077545;28;20411;-76
2022/04/17 04:34:02;;;;;;;5.93;3.78;;;12.60;61.30;;;;;;5077767;28;20084;-77
2022/04/17 04:36:28;;;;;;;7.68;4.07;;;12.60;61.00;;;;;;5077778;28;20099;-76
2022/04/17 04:38:54;;;;;;;7.43;4.68;;;12.60;60.70;;;;;;5077781;28;20052;-77
2022/04/17 04:41:20;;;;;;;6.57;4.00;;;12.60;61.00;;;;;;5077503;28;20036;-76
2022/04/17 04:43:45;;;;;;;8.20;4.95;;;12.60;61.10;;;;;;5077637;28;20028;-77
2022/04/17 04:46:11;;;;;;;6.50;3.80;;;12.50;61.00;;;;;;5077476;28;20024;-76
2022/04/17 04:51:26;;;;;;;8.52;4.65;;;12.50;60.90;;;;;;5097638;28;20111;-76
2022/04/17 04:53:53;;;;;;;5.50;4.05;;;12.50;61.00;;;;;;5097467;28;20564;-76
2022/04/17 04:56:19;;;;;;;10.25;4.78;;;12.50;61.00;;;;;;5084391;28;20479;-76
2022/04/17 04:58:46;;;;;;;7.55;3.83;;;12.50;60.90;;;;;;5077190;28;20398;-77
2022/04/17 05:01:13;;;;;;;8.32;4.68;;;12.50;60.80;;;;;;5077342;28;20032;-76
2022/04/17 05:03:39;;;;;;;7.45;4.35;;;12.40;60.80;;;;;;5082595;28;20023;-76
2022/04/17 05:06:08;;;;;;;8.07;4.47;;;12.30;60.80;;;;;;5082501;28;20082;-76
2022/04/17 05:08:34;;;;;;;6.90;4.13;;;12.40;60.80;;;;;;5093325;28;20032;-76
2022/04/17 05:11:00;;;;;;;7.90;4.05;;;12.30;61.00;;;;;;5082093;28;20272;-76
2022/04/17 05:13:26;;;;;;;5.05;3.63;;;12.30;60.80;;;;;;5097240;28;20024;-76
2022/04/17 05:15:52;;;;;;;8.10;4.13;;;12.30;60.50;;;;;;5097301;28;20535;-76
2022/04/17 05:18:18;;;;;;;6.57;4.53;;;12.30;60.80;;;;;;5096897;28;20058;-76
2022/04/17 05:20:43;;;;;;;6.78;4.10;;;12.30;60.80;;;;;;5104972;28;20051;-76
2022/04/17 05:23:26;;;;;;;5.78;3.92;;;12.30;60.70;;;;;;5096891;28;20036;-76
2022/04/17 05:25:57;;;;;;;7.28;4.15;;;12.30;60.90;;;;;;5089741;28;20036;-76
2022/04/17 05:28:23;;;;;;;7.10;4.05;;;12.30;60.90;;;;;;5074880;28;20024;-76
2022/04/17 05:30:49;;;;;;;5.60;3.55;;;12.30;60.60;;;;;;5092429;28;20433;-76
2022/04/17 05:33:19;;;;;;;7.05;4.03;;;12.30;60.70;;;;;;5076503;28;20037;-76
2022/04/17 05:35:45;;;;;;;4.45;3.13;;;12.40;60.30;;;;;;5076556;28;20020;-76
2022/04/17 05:38:11;;;;;;;6.50;4.07;;;12.30;60.60;;;;;;5092203;28;20035;-76
2022/04/17 05:40:43;;;;;;;7.70;4.30;;;12.40;60.20;;;;;;5096804;28;20082;-77
2022/04/17 05:43:09;;;;;;;7.57;4.00;;;12.40;60.60;;;;;;5096713;28;20418;-76
2022/04/17 05:45:36;;;;;;;8.18;4.05;;;12.40;60.00;;;;;;5081583;28;20107;-76
2022/04/17 05:48:04;;;;;;;5.65;3.70;;;12.50;59.90;;;;;;5089213;28;20028;-76
2022/04/17 05:50:30;;;;;;;4.65;2.90;;;12.50;60.20;;;;;;5096839;28;20028;-76
2022/04/17 05:52:56;;;;;;;7.10;4.45;;;12.50;60.30;;;;;;5078137;28;20475;-76
2022/04/17 05:55:22;;;;;;;6.00;3.90;;;12.50;60.10;;;;;;5078500;28;20043;-76
2022/04/17 05:57:48;;;;;;;4.63;3.15;;;12.60;59.80;;;;;;5091017;28;20035;-77
2022/04/17 06:00:14;;;;;;;6.38;3.63;;;12.60;59.60;;;;;;5083784;28;20069;-77
2022/04/17 06:02:40;;;;;;;7.03;4.03;;;12.50;59.20;;;;;;5084965;28;20111;-76
2022/04/17 06:05:06;;;;;;;4.97;3.40;;;12.50;59.80;;;;;;5084496;28;20096;-76
2022/04/17 06:07:33;;;;;;;5.20;3.20;;;12.70;59.60;;;;;;5086008;28;20115;-76
2022/04/17 06:10:10;;;;;;;7.75;3.78;;;12.70;59.30;;;;;;5082426;28;20074;-77
2022/04/17 06:12:36;;;;;;;7.00;4.03;;;12.70;59.10;;;;;;5082444;28;20077;-76
2022/04/17 06:15:03;;;;;;;4.95;3.92;;;12.70;59.30;;;;;;5084543;28;20054;-76
2022/04/17 06:17:39;;;;;;;4.85;3.03;;;12.70;59.40;;;;;;5085008;28;20021;-76
2022/04/17 06:20:13;;;;;;;5.40;4.00;;;12.80;59.20;;;;;;5084813;28;20024;-76
2022/04/17 06:22:40;;;;;;;5.25;3.47;;;12.80;59.10;;;;;;5083933;28;20444;-76
2022/04/17 06:25:08;;;;;;;7.25;3.75;;;12.80;59.00;;;;;;5088060;28;20538;-76
2022/04/17 06:27:42;;;;;;;6.05;3.58;;;12.90;58.50;;;;;;5085602;28;20070;-75
2022/04/17 06:30:09;;;;;;;4.75;3.30;;;13.00;57.30;;;;;;5094389;28;20486;-77
2022/04/17 06:32:35;;;;;;;4.90;3.50;;;13.00;57.60;;;;;;5095120;28;20016;-80
2022/04/17 06:52:29;;;;;;;6.82;3.85;;;12.40;60.20;;;;;;5071163;28;20388;-79
2022/04/17 06:54:55;;;;;;;4.93;2.80;;;12.50;59.30;;;;;;5062573;28;20033;-79
2022/04/17 06:57:30;;;;;;;4.78;2.92;;;12.80;58.80;;;;;;5051696;28;20022;-76
2022/04/17 06:59:56;;;;;;;5.28;3.00;;;13.00;57.40;;;;;;5050831;28;20445;-80
2022/04/17 07:02:22;;;;;;;7.07;3.28;;;13.30;56.10;;;;;;5051922;28;20029;-79
2022/04/17 07:04:47;;;;;;;4.03;2.45;;;13.60;56.60;;;;;;5050556;28;20452;-77
2022/04/17 07:07:13;;;;;;;3.90;2.28;;;13.70;55.00;;;;;;5048554;28;20033;-79
2022/04/17 07:09:39;;;;;;;3.72;2.80;;;13.80;54.70;;;;;;5050281;28;20064;-77
2022/04/17 07:12:05;;;;;;;4.63;2.22;;;13.90;55.40;;;;;;5046740;28;20095;-77
2022/04/17 07:14:32;;;;;;;2.63;2.15;;;13.90;54.00;;;;;;5050703;28;20021;-78
2022/04/17 07:16:58;;;;;;;3.50;2.40;;;14.00;53.90;;;;;;5050109;28;20383;-76
2022/04/17 07:19:23;;;;;;;4.15;2.85;;;14.00;54.20;;;;;;5047439;28;20029;-77
2022/04/17 07:25:29;;;;;;;5.70;3.10;;;14.20;54.40;;;;;;5063552;28;20443;-77
2022/04/17 07:27:55;;;;;;;2.22;1.95;;;14.20;53.90;;;;;;5063202;28;20020;-76
2022/04/17 07:30:23;;;;;;;3.25;2.63;;;14.30;53.30;;;;;;5070552;28;20024;-77
2022/04/17 07:32:51;;;;;;;5.55;3.38;;;14.50;53.50;;;;;;5068027;28;20052;-76
2022/04/17 07:35:18;;;;;;;3.50;2.50;;;15.00;52.80;;;;;;5069568;28;20078;-76
2022/04/17 07:37:52;;;;;;;5.07;2.95;;;15.40;51.20;;;;;;5066195;28;20036;-78
2022/04/17 07:40:21;;;;;;;5.82;2.75;;;15.70;50.80;;;;;;5068625;28;20032;-82
2022/04/17 07:42:48;;;;;;;4.88;3.28;;;16.00;48.60;;;;;;5052403;28;20108;-84
2022/04/17 07:45:15;;;;;;;2.63;2.17;;;16.30;47.50;;;;;;5069459;28;20118;-84
2022/04/17 07:47:42;;;;;;;3.80;2.45;;;16.70;47.20;;;;;;5071910;28;20021;-82
2022/04/17 07:50:09;;;;;;;2.92;2.05;;;17.10;45.40;;;;;;5065569;28;20100;-79
2022/04/17 07:52:35;;;;;;;3.53;2.72;;;17.80;44.00;;;;;;5065522;28;20029;-79
2022/04/17 07:55:05;;;;;;;4.05;2.88;;;19.70;40.90;;;;;;5069210;28;20017;-81
2022/04/17 07:57:55;;;;;;;3.45;2.50;;;20.80;36.70;;;;;;5068390;28;20108;-81
2022/04/17 08:00:19;;;;;;;4.32;2.78;;;20.80;36.80;;;;;;5067432;28;20052;-84
2022/04/17 08:02:50;;;;;;;3.17;2.50;;;21.60;35.80;;;;;;5065874;28;20029;-87
2022/04/17 08:05:16;;;;;;;4.57;2.50;;;22.20;35.00;;;;;;5067996;28;20013;-78
2022/04/17 08:07:42;;;;;;;3.33;2.45;;;23.00;33.10;;;;;;5069039;28;20159;-80
2022/04/17 08:10:08;;;;;;;3.65;2.40;;;23.60;32.20;;;;;;5070523;28;20039;-82
2022/04/17 08:12:34;;;;;;;4.28;2.60;;;23.80;31.80;;;;;;5071018;28;20108;-83
2022/04/17 08:15:00;;;;;;;3.83;2.70;;;23.90;31.50;;;;;;5063379;28;20028;-88
2022/04/17 08:17:26;;;;;;;3.55;2.38;;;24.40;31.20;;;;;;5066945;28;20507;-87
2022/04/17 08:19:52;;;;;;;3.80;3.10;;;24.80;30.10;;;;;;5067068;28;20021;-85
2022/04/17 08:22:17;;;;;;;3.72;2.47;;;24.60;30.80;;;;;;5059241;28;20071;-83
2022/04/17 08:24:43;;;;;;;3.35;2.67;;;24.30;30.50;;;;;;5059370;28;20134;-83
2022/04/17 08:27:10;;;;;;;3.13;2.60;;;24.40;31.50;;;;;;5058822;28;20028;-83
2022/04/17 08:29:36;;;;;;;3.15;2.60;;;24.90;30.10;;;;;;5065772;28;20039;-82
2022/04/17 08:32:02;;;;;;;3.47;2.58;;;25.40;30.10;;;;;;5057095;28;20032;-83
2022/04/17 08:34:28;;;;;;;2.58;2.22;;;25.00;29.50;;;;;;5069651;28;20597;-84
2022/04/17 08:36:54;;;;;;;4.88;2.85;;;25.70;29.20;;;;;;5052406;28;20537;-84
2022/04/17 08:39:20;;;;;;;2.90;2.60;;;25.80;29.70;;;;;;5057137;28;20411;-84
2022/04/17 08:41:47;;;;;;;3.55;2.78;;;26.30;29.30;;;;;;5056954;28;20032;-84
2022/04/17 08:44:13;;;;;;;2.72;2.20;;;26.70;28.50;;;;;;5052958;28;20033;-83
2022/04/17 08:46:40;;;;;;;3.63;2.47;;;26.30;28.30;;;;;;5052511;28;20032;-82
2022/04/17 08:49:09;;;;;;;3.08;2.30;;;26.00;29.30;;;;;;5053302;28;20116;-84
2022/04/17 08:51:37;;;;;;;3.33;2.58;;;26.30;28.60;;;;;;5055660;28;20033;-82
2022/04/17 08:54:04;;;;;;;10.20;3.03;;;26.30;29.00;;;;;;5053575;28;20079;-82
2022/04/17 08:56:30;;;;;;;3.92;2.35;;;26.60;28.90;;;;;;5054441;28;20036;-83
2022/04/17 08:58:56;;;;;;;3.28;2.30;;;26.90;28.30;;;;;;5056082;28;20017;-83
2022/04/17 09:01:22;;;;;;;3.38;2.20;;;27.00;27.80;;;;;;5052981;28;20514;-83
2022/04/17 09:03:47;;;;;;;3.00;2.30;;;27.00;26.60;;;;;;5055757;28;20064;-84
2022/04/17 09:06:21;;;;;;;2.63;2.10;;;26.60;27.40;;;;;;5054458;28;20060;-84
2022/04/17 09:09:00;;;;;;;3.50;2.17;;;26.60;27.80;;;;;;5054259;28;20021;-82
2022/04/17 09:11:30;;;;;;;2.45;2.17;;;26.30;28.20;;;;;;5052623;28;20031;-83
2022/04/17 09:13:57;;;;;;;2.88;2.22;;;27.00;27.50;;;;;;5050705;28;20103;-83
2022/04/17 09:16:28;;;;;;;2.95;2.30;;;27.00;27.60;;;;;;5050651;28;20026;-83
2022/04/17 09:18:55;;;;;;;2.35;1.80;;;26.90;27.60;;;;;;5051360;28;20112;-84
2022/04/17 09:21:32;;;;;;;2.20;2.00;;;27.00;28.70;;;;;;5049970;28;20163;-84
2022/04/17 09:24:17;;;;;;;3.15;2.28;;;27.10;26.90;;;;;;5051990;28;20041;-83
2022/04/17 09:26:59;;;;;;;2.40;1.88;;;27.30;26.60;;;;;;5048561;28;20033;-83
2022/04/17 09:29:25;;;;;;;3.53;2.17;;;27.00;26.80;;;;;;5054324;28;20110;-84
2022/04/17 09:32:14;;;;;;;2.63;1.95;;;27.00;27.30;;;;;;5056035;28;20033;-83
2022/04/17 09:34:50;;;;;;;3.05;2.10;;;26.40;27.70;;;;;;5054895;28;20025;-82
2022/04/17 09:37:24;;;;;;;3.03;2.15;;;27.30;28.70;;;;;;5054295;28;20052;-84
2022/04/17 09:39:54;;;;;;;3.03;2.03;;;27.30;27.90;;;;;;5036000;28;20029;-83
2022/04/17 09:42:21;;;;;;;2.72;2.13;;;27.20;27.20;;;;;;5038591;28;20037;-84
2022/04/17 09:44:49;;;;;;;3.67;2.30;;;27.80;28.60;;;;;;5054942;28;20116;-83
2022/04/17 09:47:18;;;;;;;3.55;1.77;;;28.20;26.80;;;;;;5037847;28;20098;-80
2022/04/17 09:50:00;;;;;;;2.88;2.17;;;28.10;27.00;;;;;;5049889;28;20039;-80
2022/04/17 09:52:31;;;;;;;2.47;2.08;;;27.90;27.70;;;;;;5035746;28;20051;-80
2022/04/17 09:54:58;;;;;;;2.58;2.15;;;28.30;28.50;;;;;;5036132;28;20399;-83
2022/04/17 09:57:39;;;;;;;2.55;2.13;;;28.30;27.30;;;;;;5051699;28;20032;-81
2022/04/17 10:00:14;;;;;;;3.05;1.95;;;27.60;26.60;;;;;;5054466;28;20027;-80
2022/04/17 10:02:42;;;;;;;2.65;2.33;;;27.80;28.30;;;;;;5052705;28;20029;-80
2022/04/17 10:05:09;;;;;;;4.72;1.95;;;27.20;27.90;;;;;;5052821;28;20071;-89
2022/04/17 10:07:38;;;;;;;3.70;2.08;;;27.20;28.20;;;;;;5051451;28;20025;-87
2022/04/17 10:10:05;;;;;;;3.28;2.20;;;27.00;28.80;;;;;;5043552;28;20037;-88
2022/04/17 10:12:35;;;;;;;2.33;1.80;;;27.10;28.50;;;;;;5053141;28;20028;-89
2022/04/17 10:15:04;;;;;;;2.40;1.98;;;26.70;28.90;;;;;;5053334;28;20029;-87
2022/04/17 10:17:31;;;;;;;3.42;2.30;;;26.60;29.40;;;;;;5034937;28;20028;-88
2022/04/17 10:20:06;;;;;;;2.67;1.75;;;26.40;30.00;;;;;;5039758;28;20028;-88
2022/04/17 10:22:34;;;;;;;2.58;1.88;;;26.10;29.00;;;;;;5051912;28;20061;-88
2022/04/17 10:25:02;;;;;;;3.58;2.13;;;25.80;30.20;;;;;;5055791;28;20077;-88
2022/04/17 10:27:35;;;;;;;2.97;2.45;;;25.70;30.60;;;;;;5052818;28;20043;-89
2022/04/17 10:30:12;;;;;;;3.65;2.40;;;25.30;29.80;;;;;;5054781;28;20029;-88
2022/04/17 10:33:22;;;;;;;2.60;1.90;;;24.80;32.70;;;;;;5047932;28;20028;-88
2022/04/17 10:36:06;;;;;;;5.32;2.10;;;24.40;31.00;;;;;;5055742;28;20028;-88
2022/04/17 10:39:09;;;;;;;4.18;2.50;;;23.80;32.20;;;;;;5034289;28;20037;-88
2022/04/17 10:41:35;;;;;;;2.70;2.30;;;23.50;34.40;;;;;;5035327;28;20029;-87
2022/04/17 10:44:04;;;;;;;2.70;2.05;;;23.80;34.20;;;;;;5039102;28;20028;-88
2022/04/17 10:46:43;;;;;;;2.17;1.42;;;23.70;33.30;;;;;;5049259;28;20041;-87
2022/04/17 10:49:09;;;;;;;2.47;1.92;;;23.30;31.30;;;;;;5035629;28;20029;-87
2022/04/17 10:51:35;;;;;;;2.92;2.15;;;23.00;32.20;;;;;;5035450;28;20033;-87
2022/04/17 10:54:04;;;;;;;3.15;1.88;;;22.60;33.60;;;;;;5033732;28;20034;-87
2022/04/17 10:56:38;;;;;;;2.72;1.95;;;22.70;33.10;;;;;;5041497;28;20032;-88
2022/04/17 10:59:18;;;;;;;3.10;1.90;;;22.60;32.60;;;;;;5052424;28;20021;-89
2022/04/17 11:01:44;;;;;;;2.45;1.50;;;22.30;33.70;;;;;;5035251;28;20030;-88
2022/04/17 11:04:21;;;;;;;3.15;2.00;;;22.50;36.20;;;;;;5045879;28;20025;-88
2022/04/17 11:07:06;;;;;;;3.80;2.10;;;22.60;34.50;;;;;;5055217;28;20120;-88
2022/04/17 11:09:39;;;;;;;3.00;1.55;;;22.80;34.60;;;;;;5051663;28;20029;-90
2022/04/17 11:12:24;;;;;;;4.05;1.92;;;22.50;34.20;;;;;;5052392;28;20056;-87
2022/04/17 11:14:54;;;;;;;3.85;1.90;;;22.60;33.30;;;;;;5034982;28;20025;-89
2022/04/17 11:17:22;;;;;;;3.83;1.83;;;22.50;33.60;;;;;;5033733;28;20036;-89
2022/04/17 11:19:49;;;;;;;3.03;1.85;;;22.40;35.40;;;;;;5033811;28;20138;-89
2022/04/17 11:22:19;;;;;;;2.40;1.40;;;22.30;33.50;;;;;;5055144;28;20024;-89
2022/04/17 11:25:03;;;;;;;2.88;1.60;;;22.20;34.50;;;;;;5054762;28;20049;-88
2022/04/17 11:27:31;;;;;;;3.08;1.85;;;22.30;33.40;;;;;;5055001;28;20044;-87
2022/04/17 11:29:57;;;;;;;2.50;1.88;;;22.20;33.80;;;;;;5053887;28;20056;-88
2022/04/17 11:32:29;;;;;;;3.60;1.88;;;22.20;34.20;;;;;;5044729;28;20039;-88
2022/04/17 11:34:57;;;;;;;2.72;1.65;;;22.00;38.70;;;;;;5034952;28;20029;-88
2022/04/17 11:37:24;;;;;;;2.67;1.40;;;22.20;36.30;;;;;;5033874;28;20121;-88
2022/04/17 11:39:51;;;;;;;3.05;1.95;;;22.30;35.90;;;;;;5034871;28;20504;-88
2022/04/17 11:42:17;;;;;;;2.10;1.40;;;22.50;34.70;;;;;;5035128;28;20476;-88
2022/04/17 11:44:44;;;;;;;3.35;1.92;;;22.40;33.70;;;;;;5040391;28;20184;-89
2022/04/17 11:47:17;;;;;;;2.80;1.75;;;22.10;34.20;;;;;;5054827;28;20048;-87
2022/04/17 11:49:44;;;;;;;3.17;1.70;;;21.60;34.00;;;;;;5053205;28;20108;-88
2022/04/17 11:52:16;;;;;;;2.63;1.70;;;21.60;34.90;;;;;;5054569;28;20028;-88
2022/04/17 11:54:43;;;;;;;2.20;1.60;;;21.80;35.50;;;;;;5043848;28;20118;-88
2022/04/17 11:57:10;;;;;;;2.88;1.58;;;21.80;35.80;;;;;;5041467;28;20083;-88
2022/04/17 11:59:47;;;;;;;2.47;1.60;;;22.10;38.00;;;;;;5053221;28;20025;-88
2022/04/17 12:02:16;;;;;;;1.92;1.63;;;22.00;36.70;;;;;;5054735;28;20032;-88
2022/04/17 12:04:53;;;;;;;2.88;1.80;;;22.10;37.10;;;;;;5049201;28;20037;-88
2022/04/17 12:07:24;;;;;;;3.67;2.28;;;22.10;36.20;;;;;;5034725;28;20049;-88
2022/04/17 12:09:50;;;;;;;3.42;1.70;;;22.00;35.40;;;;;;5048054;28;20108;-87
2022/04/17 12:12:18;;;;;;;2.53;1.60;;;22.00;37.00;;;;;;5057881;28;20025;-88
2022/04/17 12:14:45;;;;;;;3.45;2.45;;;22.10;37.20;;;;;;5056995;28;20025;-88
2022/04/17 12:17:11;;;;;;;2.75;1.80;;;22.10;36.50;;;;;;5047506;28;20026;-89
2022/04/17 12:19:37;;;;;;;4.10;1.55;;;22.30;35.50;;;;;;5038115;28;20061;-88
2022/04/17 12:22:13;;;;;;;2.67;1.60;;;22.40;36.10;;;;;;5052026;28;20029;-89
2022/04/17 12:24:45;;;;;;;2.33;1.67;;;22.30;35.80;;;;;;5052500;28;20547;-87
2022/04/17 12:27:14;;;;;;;3.15;1.20;;;22.30;34.60;;;;;;5053490;28;20037;-88
2022/04/17 12:29:41;;;;;;;2.42;1.33;;;22.30;36.60;;;;;;5038107;28;20499;-89
2022/04/17 12:32:23;;;;;;;2.38;1.30;;;22.50;36.90;;;;;;5037358;28;20113;-87
2022/04/17 12:35:02;;;;;;;2.70;1.67;;;22.60;37.30;;;;;;5046819;28;20372;-88
2022/04/17 12:37:32;;;;;;;2.00;1.63;;;22.60;37.90;;;;;;5037733;28;20086;-87
2022/04/17 12:40:11;;;;;;;2.38;1.58;;;22.40;34.40;;;;;;5037892;28;20080;-89
2022/04/17 12:42:38;;;;;;;1.85;1.35;;;22.20;33.20;;;;;;5037773;28;20049;-88
2022/04/17 12:45:06;;;;;;;3.63;1.80;;;22.10;36.60;;;;;;5040130;28;20021;-88
2022/04/17 12:47:32;;;;;;;2.58;1.48;;;22.30;36.80;;;;;;5057138;28;20028;-88
2022/04/17 12:50:04;;;;;;;2.42;1.50;;;22.30;35.20;;;;;;5057498;28;20373;-87
2022/04/17 12:52:29;;;;;;;2.58;1.55;;;22.30;36.00;;;;;;5042692;28;20839;-88
2022/04/17 12:54:56;;;;;;;3.70;1.70;;;22.50;39.10;;;;;;5037464;28;20100;-88
2022/04/17 12:57:22;;;;;;;2.47;1.30;;;22.40;37.30;;;;;;5044314;28;20107;-88
2022/04/17 12:59:50;;;;;;;2.80;1.52;;;22.20;35.90;;;;;;5052282;28;20036;-88
2022/04/17 13:02:23;;;;;;;1.40;1.10;;;22.30;36.20;;;;;;5037359;28;20025;-87
2022/04/17 13:04:53;;;;;;;2.10;1.20;;;22.50;36.60;;;;;;5037179;28;20021;-88
2022/04/17 13:07:18;;;;;;;2.60;1.52;;;22.50;33.70;;;;;;5037166;28;20033;-88
2022/04/17 13:09:55;;;;;;;2.53;1.50;;;22.40;33.80;;;;;;5047839;28;20035;-88
2022/04/17 13:12:46;;;;;;;1.70;1.20;;;22.30;33.60;;;;;;5053781;28;20494;-88
2022/04/17 13:15:15;;;;;;;2.78;1.35;;;22.50;36.50;;;;;;5055869;28;20029;-87
2022/04/17 13:17:48;;;;;;;2.03;1.30;;;22.70;38.10;;;;;;5056074;28;20033;-87
2022/04/17 13:20:16;;;;;;;2.97;1.40;;;22.70;34.50;;;;;;5053099;28;20406;-89
2022/04/17 13:22:42;;;;;;;1.98;1.23;;;22.70;35.30;;;;;;5050442;28;20551;-88
2022/04/17 13:25:09;;;;;;;2.25;1.48;;;22.60;34.50;;;;;;5036717;28;20053;-88